createdAt,value
2019-01-21T07:06:25.596Z,1016.33
2019-01-21T07:07:27.677Z,1016.31
2019-01-21T07:08:26.747Z,1016.29
2019-01-21T07:09:26.769Z,1016.32
2019-01-21T07:10:26.341Z,1016.30
2019-01-21T07:11:26.414Z,1016.35
2019-01-21T07:12:26.322Z,1016.38
2019-01-21T07:13:26.330Z,1016.35
2019-01-21T07:14:26.309Z,1016.35
2019-01-21T07:15:26.290Z,1016.32
2019-01-21T07:16:26.300Z,1016.32
2019-01-21T07:17:26.287Z,1016.32
2019-01-21T07:18:26.265Z,1016.31
2019-01-21T07:19:26.286Z,1016.34
2019-01-21T07:20:26.280Z,1016.36
2019-01-21T07:21:26.251Z,1016.36
2019-01-21T07:23:26.174Z,1016.34
2019-01-21T07:23:32.501Z,1016.40
2019-01-21T07:24:26.296Z,1016.34
2019-01-21T07:25:26.187Z,1016.39
2019-01-21T07:26:26.178Z,1016.32
2019-01-21T07:27:26.198Z,1016.34
2019-01-21T07:28:26.160Z,1016.29
2019-01-21T07:29:26.150Z,1016.32
2019-01-21T07:30:26.141Z,1016.31
2019-01-21T07:31:26.135Z,1016.40
2019-01-21T07:32:26.133Z,1016.40
2019-01-21T07:33:26.094Z,1016.40
2019-01-21T07:34:26.064Z,1016.39
2019-01-21T07:35:26.086Z,1016.40
2019-01-21T07:36:26.097Z,1016.38
2019-01-21T07:37:26.083Z,1016.27
2019-01-21T07:38:29.005Z,1016.33
2019-01-21T07:39:29.121Z,1016.36
2019-01-21T07:40:26.031Z,1016.36
2019-01-21T07:41:25.992Z,1016.36
2019-01-21T07:42:26.809Z,1016.39
2019-01-21T07:43:25.941Z,1016.41
2019-01-21T07:44:25.974Z,1016.40
2019-01-21T07:45:26.055Z,1016.41
2019-01-21T07:46:26.041Z,1016.35
2019-01-21T07:47:27.928Z,1016.35
2019-01-21T07:48:25.926Z,1016.36
2019-01-21T07:49:25.917Z,1016.37
2019-01-21T07:50:25.873Z,1016.36
2019-01-21T07:51:25.974Z,1016.38
2019-01-21T07:52:25.854Z,1016.41
2019-01-21T07:53:25.938Z,1016.33
2019-01-21T07:54:25.896Z,1016.30
2019-01-21T07:55:25.823Z,1016.27
2019-01-21T07:56:26.131Z,1016.28
2019-01-21T07:57:25.797Z,1016.20
2019-01-21T07:58:25.930Z,1016.34
2019-01-21T07:59:25.777Z,1016.27
2019-01-21T08:00:25.800Z,1016.28
2019-01-21T08:01:25.754Z,1016.25
2019-01-21T08:02:25.818Z,1016.27
2019-01-21T08:03:25.793Z,1016.28
2019-01-21T08:04:26.134Z,1016.27
2019-01-21T08:05:25.849Z,1016.28
2019-01-21T08:06:25.694Z,1016.25
2019-01-21T08:07:25.728Z,1016.21
2019-01-21T08:08:25.681Z,1016.21
2019-01-21T08:09:29.827Z,1016.21
2019-01-21T08:10:25.666Z,1016.21
2019-01-21T08:11:26.232Z,1016.21
2019-01-21T08:12:25.650Z,1016.21
2019-01-21T08:13:25.706Z,1016.25
2019-01-21T08:14:25.685Z,1016.24
2019-01-21T08:15:26.415Z,1016.27
2019-01-21T08:16:25.593Z,1016.26
2019-01-21T08:17:25.588Z,1016.33
2019-01-21T08:18:26.263Z,1016.31
2019-01-21T08:19:25.578Z,1016.38
2019-01-21T08:20:25.542Z,1016.41
2019-01-21T08:21:26.380Z,1016.44
2019-01-21T08:22:25.590Z,1016.48
2019-01-21T08:23:30.229Z,1016.47
2019-01-21T08:24:25.496Z,1016.52
2019-01-21T08:25:25.485Z,1016.52
2019-01-21T08:26:26.323Z,1016.55
2019-01-21T08:27:25.503Z,1016.58
2019-01-21T08:28:26.271Z,1016.60
2019-01-21T08:29:29.563Z,1016.54
2019-01-21T08:30:25.497Z,1016.57
2019-01-21T08:31:25.418Z,1016.57
2019-01-21T08:32:28.312Z,1016.64
2019-01-21T08:33:25.413Z,1016.60
2019-01-21T08:34:25.451Z,1016.61
2019-01-21T08:35:26.654Z,1016.59
2019-01-21T08:36:25.364Z,1016.59
2019-01-21T08:37:26.074Z,1016.56
2019-01-21T08:38:25.542Z,1016.58
2019-01-21T08:39:25.338Z,1016.60
2019-01-21T08:40:25.334Z,1016.56
2019-01-21T08:41:25.305Z,1016.50
2019-01-21T08:42:25.314Z,1016.62
2019-01-21T08:43:25.315Z,1016.55
2019-01-21T08:44:25.316Z,1016.61
2019-01-21T08:45:25.343Z,1016.65
2019-01-21T08:46:25.301Z,1016.62
2019-01-21T08:47:28.631Z,1016.60
2019-01-21T08:48:25.251Z,1016.60
2019-01-21T08:49:31.794Z,1016.59
2019-01-21T08:50:25.210Z,1016.55
2019-01-21T08:51:25.223Z,1016.48
2019-01-21T08:52:25.220Z,1016.56
2019-01-21T08:53:25.212Z,1016.53
2019-01-21T08:54:25.179Z,1016.57
2019-01-21T08:55:25.185Z,1016.60
2019-01-21T08:56:25.224Z,1016.65
2019-01-21T08:57:25.176Z,1016.70
2019-01-21T08:58:25.146Z,1016.72
2019-01-21T08:59:25.776Z,1016.76
2019-01-21T09:00:25.192Z,1016.76
2019-01-21T09:01:25.185Z,1016.78
2019-01-21T09:02:25.164Z,1016.77
2019-01-21T09:03:25.155Z,1016.75
2019-01-21T09:04:25.211Z,1016.73
2019-01-21T09:05:25.072Z,1016.72
2019-01-21T09:06:25.118Z,1016.72
2019-01-21T09:07:25.100Z,1016.77
2019-01-21T09:08:25.099Z,1016.75
2019-01-21T09:09:25.958Z,1016.79
2019-01-21T09:10:25.110Z,1016.75
2019-01-21T09:11:28.002Z,1016.81
2019-01-21T09:12:25.058Z,1016.82
2019-01-21T09:13:25.095Z,1016.80
2019-01-21T09:14:24.990Z,1016.78
2019-01-21T09:15:25.038Z,1016.81
2019-01-21T09:16:24.938Z,1016.79
2019-01-21T09:17:24.970Z,1016.82
2019-01-21T09:18:25.008Z,1016.77
2019-01-21T09:19:25.764Z,1016.81
2019-01-21T09:20:25.943Z,1016.85
2019-01-21T09:21:24.923Z,1016.89
2019-01-21T09:22:24.903Z,1016.91
2019-01-21T09:23:24.952Z,1016.90
2019-01-21T09:24:24.884Z,1016.88
2019-01-21T09:25:24.891Z,1016.93
2019-01-21T09:26:24.872Z,1016.88
2019-01-21T09:27:24.917Z,1016.84
2019-01-21T09:28:24.797Z,1016.85
2019-01-21T09:29:24.845Z,1016.83
2019-01-21T09:30:28.903Z,1016.83
2019-01-21T09:31:25.142Z,1016.82
2019-01-21T09:32:24.791Z,1016.88
2019-01-21T09:33:24.873Z,1016.85
2019-01-21T09:34:24.768Z,1016.88
2019-01-21T09:35:24.771Z,1016.89
2019-01-21T09:36:24.729Z,1016.93
2019-01-21T09:37:24.746Z,1016.97
2019-01-21T09:38:24.759Z,1016.96
2019-01-21T09:39:24.732Z,1016.99
2019-01-21T09:40:24.689Z,1017.00
2019-01-21T09:41:24.660Z,1017.07
2019-01-21T09:42:24.764Z,1017.08
2019-01-21T09:43:24.673Z,1017.06
2019-01-21T09:44:24.647Z,1017.10
2019-01-21T09:45:24.619Z,1017.10
2019-01-21T09:46:24.638Z,1017.17
2019-01-21T09:47:24.610Z,1017.13
2019-01-21T09:48:24.622Z,1017.13
2019-01-21T09:49:24.624Z,1017.15
2019-01-21T09:50:24.605Z,1017.18
2019-01-21T09:51:24.568Z,1017.22
2019-01-21T09:52:24.531Z,1017.20
2019-01-21T09:53:24.606Z,1017.20
2019-01-21T09:54:25.352Z,1017.14
2019-01-21T09:55:24.666Z,1017.24
2019-01-21T09:56:24.563Z,1017.21
2019-01-21T09:57:24.543Z,1017.21
2019-01-21T09:58:24.560Z,1017.21
2019-01-21T09:59:27.566Z,1017.21
2019-01-21T10:00:24.591Z,1017.16
2019-01-21T10:01:25.193Z,1017.15
2019-01-21T10:02:25.521Z,1017.08
2019-01-21T10:03:24.483Z,1017.09
2019-01-21T10:04:27.484Z,1017.09
2019-01-21T10:05:24.528Z,1017.08
2019-01-21T10:06:24.388Z,1017.09
2019-01-21T10:07:24.384Z,1017.07
2019-01-21T10:08:24.374Z,1017.07
2019-01-21T10:09:24.481Z,1017.06
2019-01-21T10:10:25.290Z,1017.05
2019-01-21T10:11:24.360Z,1017.04
2019-01-21T10:12:24.381Z,1017.03
2019-01-21T10:13:24.309Z,1016.99
2019-01-21T10:14:24.322Z,1016.96
2019-01-21T10:15:24.345Z,1016.91
2019-01-21T10:16:25.322Z,1016.90
2019-01-21T10:17:24.405Z,1016.90
2019-01-21T10:18:25.325Z,1016.90
2019-01-21T10:19:24.277Z,1016.89
2019-01-21T10:20:24.335Z,1016.86
2019-01-21T10:21:25.620Z,1016.86
2019-01-21T10:22:27.198Z,1016.81
2019-01-21T10:23:24.224Z,1016.82
2019-01-21T10:24:24.203Z,1016.85
2019-01-21T10:25:24.387Z,1016.86
2019-01-21T10:26:24.256Z,1016.82
2019-01-21T10:27:24.205Z,1016.84
2019-01-21T10:28:24.184Z,1016.76
2019-01-21T10:29:24.202Z,1016.75
2019-01-21T10:30:24.138Z,1016.76
2019-01-21T10:31:24.295Z,1016.75
2019-01-21T10:32:24.440Z,1016.67
2019-01-21T10:33:24.199Z,1016.74
2019-01-21T10:34:24.110Z,1016.70
2019-01-21T10:35:25.117Z,1016.73
2019-01-21T10:36:24.440Z,1016.70
2019-01-21T10:37:24.104Z,1016.71
2019-01-21T10:38:24.159Z,1016.72
2019-01-21T10:39:24.084Z,1016.61
2019-01-21T10:40:24.114Z,1016.62
2019-01-21T10:41:24.890Z,1016.51
2019-01-21T10:42:25.566Z,1016.38
2019-01-21T10:43:24.046Z,1016.50
2019-01-21T10:44:24.063Z,1016.58
2019-01-21T10:45:25.010Z,1016.50
2019-01-21T10:46:24.818Z,1016.50
2019-01-21T10:47:23.946Z,1016.50
2019-01-21T10:48:24.029Z,1016.49
2019-01-21T10:49:23.950Z,1016.46
2019-01-21T10:50:24.032Z,1016.48
2019-01-21T10:51:24.001Z,1016.44
2019-01-21T10:52:23.917Z,1016.43
2019-01-21T10:53:23.962Z,1016.41
2019-01-21T10:54:23.919Z,1016.42
2019-01-21T10:55:23.888Z,1016.45
2019-01-21T10:56:23.835Z,1016.47
2019-01-21T10:57:26.028Z,1016.44
2019-01-21T10:58:23.834Z,1016.42
2019-01-21T10:59:23.803Z,1016.44
2019-01-21T11:00:23.843Z,1016.47
2019-01-21T11:01:23.945Z,1016.34
2019-01-21T11:02:24.027Z,1016.48
2019-01-21T11:03:23.922Z,1016.41
2019-01-21T11:04:23.909Z,1016.45
2019-01-21T11:05:25.453Z,1016.39
2019-01-21T11:06:23.787Z,1016.44
2019-01-21T11:07:23.853Z,1016.33
2019-01-21T11:08:23.743Z,1016.34
2019-01-21T11:09:26.746Z,1016.36
2019-01-21T11:10:23.740Z,1016.35
2019-01-21T11:11:23.726Z,1016.33
2019-01-21T11:12:24.283Z,1016.33
2019-01-21T11:13:23.776Z,1016.34
2019-01-21T11:14:23.650Z,1016.31
2019-01-21T11:15:23.671Z,1016.20
2019-01-21T11:16:23.635Z,1016.31
2019-01-21T11:17:23.613Z,1016.32
2019-01-21T11:18:23.853Z,1016.28
2019-01-21T11:19:23.603Z,1016.33
2019-01-21T11:20:23.590Z,1016.29
2019-01-21T11:21:23.632Z,1016.29
2019-01-21T11:22:24.258Z,1016.27
2019-01-21T11:23:23.535Z,1016.25
2019-01-21T11:24:23.529Z,1016.14
2019-01-21T11:25:23.929Z,1016.15
2019-01-21T11:26:23.543Z,1016.16
2019-01-21T11:27:23.501Z,1016.13
2019-01-21T11:28:23.491Z,1016.12
2019-01-21T11:29:23.479Z,1016.17
2019-01-21T11:30:23.502Z,1016.20
2019-01-21T11:31:23.796Z,1016.19
2019-01-21T11:32:23.474Z,1016.20
2019-01-21T11:33:23.425Z,1016.18
2019-01-21T11:34:23.496Z,1016.12
2019-01-21T11:35:23.403Z,1016.07
2019-01-21T11:36:23.436Z,1016.08
2019-01-21T11:37:23.440Z,1016.04
2019-01-21T11:38:23.375Z,1016.02
2019-01-21T11:39:26.256Z,1016.02
2019-01-21T11:40:23.366Z,1015.98
2019-01-21T11:41:23.433Z,1016.04
2019-01-21T11:42:23.390Z,1016.01
2019-01-21T11:43:23.318Z,1015.98
2019-01-21T11:44:23.333Z,1016.01
2019-01-21T11:45:23.469Z,1016.00
2019-01-21T11:46:23.417Z,1015.90
2019-01-21T11:47:23.278Z,1015.92
2019-01-21T11:48:23.273Z,1015.87
2019-01-21T11:49:23.250Z,1015.87
2019-01-21T11:50:23.282Z,1015.83
2019-01-21T11:51:23.253Z,1015.77
2019-01-21T11:52:23.218Z,1015.82
2019-01-21T11:53:23.207Z,1015.82
2019-01-21T11:54:23.198Z,1015.80
2019-01-21T11:55:23.192Z,1015.75
2019-01-21T11:56:23.238Z,1015.80
2019-01-21T11:57:23.168Z,1015.75
2019-01-21T11:58:24.165Z,1015.69
2019-01-21T11:59:26.255Z,1015.72
2019-01-21T12:00:26.937Z,1015.75
2019-01-21T12:01:23.434Z,1015.67
2019-01-21T12:02:23.853Z,1015.61
2019-01-21T12:03:23.827Z,1015.61
2019-01-21T12:04:23.448Z,1015.63
2019-01-21T12:05:23.365Z,1015.61
2019-01-21T12:06:23.399Z,1015.56
2019-01-21T12:07:24.375Z,1015.56
2019-01-21T12:08:23.374Z,1015.55
2019-01-21T12:09:23.351Z,1015.48
2019-01-21T12:10:23.387Z,1015.44
2019-01-21T12:11:23.367Z,1015.45
2019-01-21T12:12:23.750Z,1015.45
2019-01-21T12:13:23.382Z,1015.40
2019-01-21T12:14:23.385Z,1015.41
2019-01-21T12:15:23.101Z,1015.39
2019-01-21T12:16:23.025Z,1015.37
2019-01-21T12:17:23.758Z,1015.40
2019-01-21T12:18:23.042Z,1015.41
2019-01-21T12:19:23.005Z,1015.39
2019-01-21T12:20:23.007Z,1015.38
2019-01-21T12:21:22.934Z,1015.33
2019-01-21T12:22:22.891Z,1015.31
2019-01-21T12:23:22.893Z,1015.28
2019-01-21T12:24:22.890Z,1015.35
2019-01-21T12:25:24.005Z,1015.23
2019-01-21T12:26:22.893Z,1015.24
2019-01-21T12:27:22.888Z,1015.25
2019-01-21T12:28:22.835Z,1015.27
2019-01-21T12:29:22.859Z,1015.28
2019-01-21T12:30:22.833Z,1015.28
2019-01-21T12:31:22.830Z,1015.25
2019-01-21T12:32:23.185Z,1015.23
2019-01-21T12:33:22.768Z,1015.25
2019-01-21T12:35:36.957Z,1015.26
2019-01-21T12:36:37.959Z,1015.23
2019-01-21T12:37:37.949Z,1015.27
2019-01-21T12:38:37.911Z,1015.20
2019-01-21T12:39:37.909Z,1015.21
2019-01-21T12:40:37.916Z,1015.23
2019-01-21T12:41:37.874Z,1015.15
2019-01-21T12:42:38.143Z,1015.13
2019-01-21T12:43:37.882Z,1015.18
2019-01-21T12:44:37.945Z,1015.14
2019-01-21T12:45:37.851Z,1015.12
2019-01-21T12:46:37.843Z,1015.17
2019-01-21T12:47:37.864Z,1015.16
2019-01-21T12:48:37.889Z,1015.16
2019-01-21T12:49:37.810Z,1015.13
2019-01-21T12:50:37.793Z,1015.14
2019-01-21T12:51:37.763Z,1015.14
2019-01-21T12:52:37.802Z,1015.18
2019-01-21T12:53:37.793Z,1015.13
2019-01-21T12:54:37.783Z,1015.12
2019-01-21T12:55:37.741Z,1015.09
2019-01-21T12:56:38.726Z,1015.10
2019-01-21T12:57:37.727Z,1015.14
2019-01-21T12:58:37.705Z,1015.05
2019-01-21T12:59:37.698Z,1015.07
2019-01-21T13:00:37.674Z,1015.08
2019-01-21T13:01:37.689Z,1014.99
2019-01-21T13:02:40.010Z,1015.02
2019-01-21T13:03:37.652Z,1014.97
2019-01-21T13:04:37.643Z,1014.95
2019-01-21T13:05:40.844Z,1014.95
2019-01-21T13:06:37.647Z,1014.90
2019-01-21T13:07:37.613Z,1014.91
2019-01-21T13:08:37.608Z,1014.85
2019-01-21T13:09:37.576Z,1014.91
2019-01-21T13:10:37.703Z,1014.87
2019-01-21T13:11:37.559Z,1014.90
2019-01-21T13:12:37.609Z,1014.89
2019-01-21T13:13:37.536Z,1014.90
2019-01-21T13:14:37.529Z,1014.89
2019-01-21T13:15:37.515Z,1014.88
2019-01-21T13:16:37.495Z,1014.86
2019-01-21T13:17:37.492Z,1014.81
2019-01-21T13:18:37.526Z,1014.82
2019-01-21T13:19:38.255Z,1014.78
2019-01-21T13:20:37.533Z,1014.75
2019-01-21T13:21:37.474Z,1014.74
2019-01-21T13:22:37.448Z,1014.74
2019-01-21T13:23:37.436Z,1014.75
2019-01-21T13:24:37.406Z,1014.72
2019-01-21T13:25:37.398Z,1014.70
2019-01-21T13:26:37.432Z,1014.71
2019-01-21T13:27:37.622Z,1014.69
2019-01-21T13:28:37.392Z,1014.69
2019-01-21T13:29:37.380Z,1014.69
2019-01-21T13:30:37.387Z,1014.67
2019-01-21T13:31:37.353Z,1014.69
2019-01-21T13:32:37.350Z,1014.60
2019-01-21T13:33:37.333Z,1014.68
2019-01-21T13:34:38.269Z,1014.66
2019-01-21T13:35:37.290Z,1014.65
2019-01-21T13:36:37.292Z,1014.60
2019-01-21T13:37:37.410Z,1014.65
2019-01-21T13:38:37.286Z,1014.59
2019-01-21T13:39:37.766Z,1014.64
2019-01-21T13:40:37.245Z,1014.64
2019-01-21T13:41:37.360Z,1014.60
2019-01-21T13:42:37.227Z,1014.62
2019-01-21T13:43:37.229Z,1014.63
2019-01-21T13:44:37.205Z,1014.63
2019-01-21T13:45:37.184Z,1014.64
2019-01-21T13:46:37.169Z,1014.62
2019-01-21T13:47:37.199Z,1014.61
2019-01-21T13:48:37.165Z,1014.62
2019-01-21T13:49:37.164Z,1014.64
2019-01-21T13:50:37.415Z,1014.64
2019-01-21T13:51:37.111Z,1014.57
2019-01-21T13:52:37.100Z,1014.56
2019-01-21T13:53:37.099Z,1014.53
2019-01-21T13:54:37.091Z,1014.53
2019-01-21T13:55:37.126Z,1014.49
2019-01-21T13:56:49.960Z,1014.45
2019-01-21T13:57:37.057Z,1014.51
2019-01-21T13:58:37.037Z,1014.45
2019-01-21T13:59:37.054Z,1014.42
2019-01-21T14:00:37.019Z,1014.39
2019-01-21T14:01:37.031Z,1014.37
2019-01-21T14:02:36.996Z,1014.35
2019-01-21T14:03:37.580Z,1014.38
2019-01-21T14:04:37.069Z,1014.34
2019-01-21T14:05:37.013Z,1014.31
2019-01-21T14:06:36.952Z,1014.25
2019-01-21T14:07:36.937Z,1014.27
2019-01-21T14:08:36.932Z,1014.27
2019-01-21T14:09:36.971Z,1014.28
2019-01-21T14:10:36.987Z,1014.32
2019-01-21T14:11:36.950Z,1014.26
2019-01-21T14:12:36.991Z,1014.22
2019-01-21T14:13:36.959Z,1014.25
2019-01-21T14:14:36.900Z,1014.20
2019-01-21T14:15:36.848Z,1014.23
2019-01-21T14:16:36.847Z,1014.23
2019-01-21T14:17:37.845Z,1014.20
2019-01-21T14:18:36.817Z,1014.19
2019-01-21T14:19:36.833Z,1014.17
2019-01-21T14:20:36.807Z,1014.19
2019-01-21T14:21:36.844Z,1014.18
2019-01-21T14:22:36.784Z,1014.19
2019-01-21T14:23:36.788Z,1014.11
2019-01-21T14:24:36.766Z,1014.15
2019-01-21T14:25:36.737Z,1014.16
2019-01-21T14:26:36.734Z,1014.15
2019-01-21T14:27:36.755Z,1014.15
2019-01-21T14:28:36.722Z,1014.13
2019-01-21T14:29:36.715Z,1014.10
2019-01-21T14:30:36.706Z,1014.11
2019-01-21T14:31:36.727Z,1014.03
2019-01-21T14:32:36.686Z,1014.04
2019-01-21T14:33:36.659Z,1014.01
2019-01-21T14:34:36.676Z,1014.03
2019-01-21T14:35:36.653Z,1014.01
2019-01-21T14:36:36.654Z,1013.98
2019-01-21T14:37:36.628Z,1013.98
2019-01-21T14:38:36.605Z,1014.00
2019-01-21T14:39:36.603Z,1013.99
2019-01-21T14:40:36.576Z,1013.96
2019-01-21T14:41:36.589Z,1013.97
2019-01-21T14:42:36.559Z,1013.94
2019-01-21T14:43:36.570Z,1013.95
2019-01-21T14:44:36.555Z,1013.95
2019-01-21T14:45:36.532Z,1013.97
2019-01-21T14:46:36.525Z,1013.97
2019-01-21T14:47:36.502Z,1013.94
2019-01-21T14:48:36.534Z,1014.06
2019-01-21T14:49:36.506Z,1014.08
2019-01-21T14:50:36.482Z,1014.11
2019-01-21T14:51:36.799Z,1014.13
2019-01-21T14:52:36.503Z,1014.11
2019-01-21T14:53:36.735Z,1014.10
2019-01-21T14:54:36.525Z,1014.11
2019-01-21T14:55:36.439Z,1014.09
2019-01-21T14:56:36.483Z,1014.14
2019-01-21T14:57:36.406Z,1014.05
2019-01-21T14:58:36.497Z,1014.00
2019-01-21T14:59:36.380Z,1014.02
2019-01-21T15:00:36.371Z,1014.00
2019-01-21T15:01:36.367Z,1014.00
2019-01-21T15:02:36.341Z,1013.98
2019-01-21T15:03:36.360Z,1014.00
2019-01-21T15:04:36.410Z,1014.02
2019-01-21T15:05:36.311Z,1014.01
2019-01-21T15:06:36.359Z,1014.02
2019-01-21T15:07:36.347Z,1013.96
2019-01-21T15:08:36.338Z,1013.99
2019-01-21T15:09:36.320Z,1013.97
2019-01-21T15:10:36.258Z,1013.98
2019-01-21T15:11:36.320Z,1014.00
2019-01-21T15:12:36.226Z,1013.97
2019-01-21T15:13:36.230Z,1013.99
2019-01-21T15:14:36.232Z,1013.95
2019-01-21T15:15:36.224Z,1014.00
2019-01-21T15:16:36.236Z,1013.98
2019-01-21T15:17:36.173Z,1013.97
2019-01-21T15:18:36.226Z,1013.96
2019-01-21T15:19:36.225Z,1013.94
2019-01-21T15:20:36.238Z,1013.90
2019-01-21T15:21:36.134Z,1013.93
2019-01-21T15:22:36.202Z,1013.91
2019-01-21T15:23:36.114Z,1013.92
2019-01-21T15:24:36.139Z,1013.95
2019-01-21T15:25:36.162Z,1013.94
2019-01-21T15:26:36.085Z,1013.91
2019-01-21T15:27:36.150Z,1013.85
2019-01-21T15:28:36.069Z,1013.86
2019-01-21T15:29:36.081Z,1013.88
2019-01-21T15:30:36.140Z,1013.85
2019-01-21T15:31:36.044Z,1013.83
2019-01-21T15:32:36.110Z,1013.83
2019-01-21T15:33:36.064Z,1013.78
2019-01-21T15:34:36.029Z,1013.77
2019-01-21T15:35:35.976Z,1013.79
2019-01-21T15:36:36.034Z,1013.76
2019-01-21T15:37:36.035Z,1013.77
2019-01-21T15:38:35.963Z,1013.74
2019-01-21T15:39:35.967Z,1013.77
2019-01-21T15:40:35.933Z,1013.76
2019-01-21T15:41:36.101Z,1013.73
2019-01-21T15:42:35.999Z,1013.71
2019-01-21T15:43:35.980Z,1013.75
2019-01-21T15:44:35.953Z,1013.68
2019-01-21T15:45:35.968Z,1013.72
2019-01-21T15:46:35.905Z,1013.75
2019-01-21T15:47:35.868Z,1013.77
2019-01-21T15:48:35.841Z,1013.76
2019-01-21T15:49:35.851Z,1013.75
2019-01-21T15:50:35.827Z,1013.75
2019-01-21T15:51:35.818Z,1013.76
2019-01-21T15:52:35.797Z,1013.72
2019-01-21T15:53:35.788Z,1013.74
2019-01-21T15:54:35.781Z,1013.68
2019-01-21T15:55:35.761Z,1013.68
2019-01-21T15:56:35.750Z,1013.70
2019-01-21T15:57:35.749Z,1013.72
2019-01-21T15:58:35.721Z,1013.74
2019-01-21T15:59:35.740Z,1013.71
2019-01-21T16:00:35.703Z,1013.74
2019-01-21T16:01:35.706Z,1013.72
2019-01-21T16:02:35.705Z,1013.73
2019-01-21T16:03:35.673Z,1013.71
2019-01-21T16:04:35.800Z,1013.73
2019-01-21T16:05:35.665Z,1013.76
2019-01-21T16:06:35.635Z,1013.77
2019-01-21T16:07:35.628Z,1013.80
2019-01-21T16:08:35.619Z,1013.74
2019-01-21T16:09:35.707Z,1013.72
2019-01-21T16:10:35.635Z,1013.77
2019-01-21T16:11:35.585Z,1013.76
2019-01-21T16:12:35.604Z,1013.75
2019-01-21T16:13:35.564Z,1013.74
2019-01-21T16:14:36.492Z,1013.69
2019-01-21T16:15:35.561Z,1013.71
2019-01-21T16:16:35.528Z,1013.67
2019-01-21T16:17:35.521Z,1013.66
2019-01-21T16:18:35.509Z,1013.64
2019-01-21T16:19:35.492Z,1013.66
2019-01-21T16:20:35.531Z,1013.68
2019-01-21T16:21:35.484Z,1013.65
2019-01-21T16:22:35.476Z,1013.65
2019-01-21T16:23:35.448Z,1013.66
2019-01-21T16:24:35.446Z,1013.65
2019-01-21T16:25:35.445Z,1013.63
2019-01-21T16:26:35.596Z,1013.64
2019-01-21T16:27:35.423Z,1013.58
2019-01-21T16:28:35.478Z,1013.57
2019-01-21T16:29:35.388Z,1013.59
2019-01-21T16:30:35.396Z,1013.59
2019-01-21T16:31:35.370Z,1013.56
2019-01-21T16:32:35.373Z,1013.56
2019-01-21T16:33:35.335Z,1013.54
2019-01-21T16:34:35.336Z,1013.55
2019-01-21T16:35:35.337Z,1013.52
2019-01-21T16:36:35.316Z,1013.55
2019-01-21T16:37:35.301Z,1013.58
2019-01-21T16:38:35.290Z,1013.54
2019-01-21T16:39:35.280Z,1013.55
2019-01-21T16:40:35.282Z,1013.54
2019-01-21T16:41:35.255Z,1013.56
2019-01-21T16:42:35.248Z,1013.62
2019-01-21T16:43:35.238Z,1013.61
2019-01-21T16:44:35.281Z,1013.63
2019-01-21T16:45:35.230Z,1013.65
2019-01-21T16:46:35.741Z,1013.62
2019-01-21T16:47:35.193Z,1013.65
2019-01-21T16:48:36.423Z,1013.64
2019-01-21T16:49:35.170Z,1013.64
2019-01-21T16:50:35.195Z,1013.64
2019-01-21T16:51:35.213Z,1013.67
2019-01-21T16:52:36.893Z,1013.63
2019-01-21T16:53:35.125Z,1013.64
2019-01-21T16:54:35.132Z,1013.68
2019-01-21T16:55:35.196Z,1013.68
2019-01-21T16:56:35.099Z,1013.68
2019-01-21T16:57:35.171Z,1013.66
2019-01-21T16:58:35.088Z,1013.65
2019-01-21T16:59:35.050Z,1013.68
2019-01-21T17:00:35.118Z,1013.65
2019-01-21T17:01:35.036Z,1013.62
2019-01-21T17:02:35.039Z,1013.60
2019-01-21T17:03:35.024Z,1013.58
2019-01-21T17:04:35.019Z,1013.58
2019-01-21T17:05:35.029Z,1013.56
2019-01-21T17:06:34.989Z,1013.53
2019-01-21T17:07:34.966Z,1013.54
2019-01-21T17:08:34.965Z,1013.55
2019-01-21T17:09:34.972Z,1013.57
2019-01-21T17:10:39.126Z,1013.54
2019-01-21T17:11:34.943Z,1013.53
2019-01-21T17:12:35.897Z,1013.52
2019-01-21T17:13:34.926Z,1013.53
2019-01-21T17:14:34.906Z,1013.52
2019-01-21T17:15:34.898Z,1013.55
2019-01-21T17:16:34.897Z,1013.52
2019-01-21T17:17:34.862Z,1013.50
2019-01-21T17:18:34.851Z,1013.45
2019-01-21T17:19:34.844Z,1013.49
2019-01-21T17:20:34.840Z,1013.43
2019-01-21T17:22:34.820Z,1013.44
2019-01-21T17:23:34.796Z,1013.42
2019-01-21T17:24:34.779Z,1013.38
2019-01-21T17:25:34.796Z,1013.37
2019-01-21T17:26:34.762Z,1013.40
2019-01-21T17:27:34.755Z,1013.42
2019-01-21T17:28:34.744Z,1013.41
2019-01-21T17:29:34.800Z,1013.38
2019-01-21T17:30:34.752Z,1013.39
2019-01-21T17:31:34.715Z,1013.39
2019-01-21T17:32:34.714Z,1013.37
2019-01-21T17:33:34.686Z,1013.37
2019-01-21T17:34:34.685Z,1013.41
2019-01-21T17:35:34.682Z,1013.40
2019-01-21T17:36:34.661Z,1013.42
2019-01-21T17:37:34.662Z,1013.42
2019-01-21T17:38:34.661Z,1013.38
2019-01-21T17:39:34.620Z,1013.46
2019-01-21T17:40:34.629Z,1013.43
2019-01-21T17:41:34.610Z,1013.41
2019-01-21T17:42:34.623Z,1013.42
2019-01-21T17:43:34.586Z,1013.40
2019-01-21T17:44:34.563Z,1013.41
2019-01-21T17:45:34.576Z,1013.38
2019-01-21T17:46:34.547Z,1013.38
2019-01-21T17:47:34.549Z,1013.37
2019-01-21T17:48:34.527Z,1013.35
2019-01-21T17:49:34.515Z,1013.40
2019-01-21T17:50:34.504Z,1013.40
2019-01-21T17:51:35.425Z,1013.41
2019-01-21T17:52:34.509Z,1013.43
2019-01-21T17:53:34.481Z,1013.38
2019-01-21T17:54:35.302Z,1013.41
2019-01-21T17:55:34.454Z,1013.40
2019-01-21T17:56:34.448Z,1013.42
2019-01-21T17:57:34.421Z,1013.39
2019-01-21T17:58:34.420Z,1013.41
2019-01-21T17:59:34.419Z,1013.34
2019-01-21T18:00:34.502Z,1013.36
2019-01-21T18:01:39.224Z,1013.33
2019-01-21T18:02:34.378Z,1013.30
2019-01-21T18:03:34.360Z,1013.32
2019-01-21T18:04:34.350Z,1013.32
2019-01-21T18:05:34.343Z,1013.35
2019-01-21T18:06:34.359Z,1013.32
2019-01-21T18:07:35.252Z,1013.34
2019-01-21T18:08:34.305Z,1013.29
2019-01-21T18:09:34.298Z,1013.33
2019-01-21T18:10:34.309Z,1013.29
2019-01-21T18:11:34.285Z,1013.31
2019-01-21T18:12:34.268Z,1013.26
2019-01-21T18:13:34.250Z,1013.28
2019-01-21T18:14:34.241Z,1013.25
2019-01-21T18:15:34.258Z,1013.26
2019-01-21T18:16:34.254Z,1013.27
2019-01-21T18:17:34.209Z,1013.28
2019-01-21T18:18:34.280Z,1013.27
2019-01-21T18:19:34.185Z,1013.26
2019-01-21T18:20:34.178Z,1013.28
2019-01-21T18:21:39.978Z,1013.26
2019-01-21T18:22:34.748Z,1013.29
2019-01-21T18:23:34.141Z,1013.27
2019-01-21T18:24:34.131Z,1013.24
2019-01-21T18:25:34.125Z,1013.27
2019-01-21T18:26:34.130Z,1013.23
2019-01-21T18:27:34.113Z,1013.27
2019-01-21T18:28:34.104Z,1013.25
2019-01-21T18:29:34.089Z,1013.25
2019-01-21T18:30:34.066Z,1013.20
2019-01-21T18:31:34.066Z,1013.25
2019-01-21T18:32:34.059Z,1013.26
2019-01-21T18:33:34.046Z,1013.27
2019-01-21T18:34:34.096Z,1013.24
2019-01-21T18:35:34.019Z,1013.28
2019-01-21T18:36:34.020Z,1013.25
2019-01-21T18:37:33.992Z,1013.24
2019-01-21T18:38:33.978Z,1013.26
2019-01-21T18:39:33.969Z,1013.27
2019-01-21T18:40:34.049Z,1013.24
2019-01-21T18:41:34.069Z,1013.24
2019-01-21T18:42:33.953Z,1013.20
2019-01-21T18:43:33.922Z,1013.21
2019-01-21T18:44:33.906Z,1013.16
2019-01-21T18:45:33.902Z,1013.17
2019-01-21T18:46:33.904Z,1013.15
2019-01-21T18:47:33.916Z,1013.09
2019-01-21T18:48:33.929Z,1013.10
2019-01-21T18:49:33.865Z,1013.11
2019-01-21T18:50:33.969Z,1013.06
2019-01-21T18:51:33.851Z,1013.04
2019-01-21T18:52:33.828Z,1013.05
2019-01-21T18:53:33.833Z,1013.04
2019-01-21T18:54:33.803Z,1013.03
2019-01-21T18:55:33.790Z,1013.04
2019-01-21T18:56:33.785Z,1013.01
2019-01-21T18:57:34.031Z,1013.01
2019-01-21T18:58:33.762Z,1012.96
2019-01-21T18:59:33.748Z,1013.03
2019-01-21T19:00:33.744Z,1012.99
2019-01-21T19:01:33.737Z,1012.98
2019-01-21T19:02:33.728Z,1012.96
2019-01-21T19:03:33.713Z,1012.97
2019-01-21T19:04:33.694Z,1012.87
2019-01-21T19:05:33.692Z,1012.90
2019-01-21T19:06:33.817Z,1012.91
2019-01-21T19:07:33.665Z,1012.87
2019-01-21T19:08:33.653Z,1012.86
2019-01-21T19:09:33.682Z,1012.82
2019-01-21T19:10:33.640Z,1012.82
2019-01-21T19:11:33.636Z,1012.79
2019-01-21T19:12:33.708Z,1012.81
2019-01-21T19:13:33.607Z,1012.79